Terminal Aerodrome Forecast
Issued by NWS Twin Cities, MN

Current Version | Previous Version | Text Only | Print | Product List | Glossary On
Versions: 1 2 3 4 5 6 7 8 9 10 11 12 13 14 15 16 17 18 19 20 21 22 23 24 25
857
FTUS43 KMPX 052054 AAB
TAFMSP
TAF AMD
KMSP 052054Z 0521/0624 23013KT P6SM SKC
     FM060100 23008KT P6SM SKC
     FM062000 24016G22KT P6SM FEW050 SCT090=

USA.gov is the U.S. government's official web portal to all federal, state and local government web resources and services.